sensor_id;sensor_type;location;lat;lon;timestamp;P1;durP1;ratioP1;P2;durP2;ratioP2
6825;SDS011;3451;52.476;13.316;2023-02-01T00:02:13;20.77;;;3.83;;
6825;SDS011;3451;52.476;13.316;2023-02-01T00:04:39;19.20;;;4.00;;
6825;SDS011;3451;52.476;13.316;2023-02-01T00:07:06;20.47;;;3.70;;
6825;SDS011;3451;52.476;13.316;2023-02-01T00:09:32;18.03;;;4.40;;
6825;SDS011;3451;52.476;13.316;2023-02-01T00:11:59;20.27;;;3.77;;
6825;SDS011;3451;52.476;13.316;2023-02-01T00:14:28;23.70;;;4.20;;
6825;SDS011;3451;52.476;13.316;2023-02-01T00:16:54;17.53;;;3.70;;
6825;SDS011;3451;52.476;13.316;2023-02-01T00:19:20;15.20;;;3.20;;
6825;SDS011;3451;52.476;13.316;2023-02-01T00:21:47;15.13;;;4.07;;
6825;SDS011;3451;52.476;13.316;2023-02-01T00:24:13;20.57;;;3.73;;
6825;SDS011;3451;52.476;13.316;2023-02-01T00:26:41;22.00;;;3.80;;
6825;SDS011;3451;52.476;13.316;2023-02-01T00:29:14;16.83;;;3.50;;
6825;SDS011;3451;52.476;13.316;2023-02-01T00:31:41;19.40;;;3.53;;
6825;SDS011;3451;52.476;13.316;2023-02-01T00:34:09;19.33;;;3.20;;
6825;SDS011;3451;52.476;13.316;2023-02-01T00:36:36;20.73;;;3.37;;
6825;SDS011;3451;52.476;13.316;2023-02-01T00:39:02;17.73;;;3.70;;
6825;SDS011;3451;52.476;13.316;2023-02-01T00:41:29;22.23;;;4.20;;
6825;SDS011;3451;52.476;13.316;2023-02-01T00:43:55;15.60;;;3.53;;
6825;SDS011;3451;52.476;13.316;2023-02-01T00:46:21;15.97;;;4.00;;
6825;SDS011;3451;52.476;13.316;2023-02-01T00:48:48;15.23;;;3.10;;
6825;SDS011;3451;52.476;13.316;2023-02-01T00:51:15;18.37;;;3.67;;
6825;SDS011;3451;52.476;13.316;2023-02-01T00:53:42;13.43;;;3.10;;
6825;SDS011;3451;52.476;13.316;2023-02-01T00:56:08;16.57;;;3.47;;
6825;SDS011;3451;52.476;13.316;2023-02-01T00:58:35;15.23;;;3.33;;
6825;SDS011;3451;52.476;13.316;2023-02-01T01:03:29;12.07;;;3.70;;
6825;SDS011;3451;52.476;13.316;2023-02-01T01:05:59;15.73;;;3.07;;
6825;SDS011;3451;52.476;13.316;2023-02-01T01:08:26;14.87;;;3.37;;
6825;SDS011;3451;52.476;13.316;2023-02-01T01:10:52;14.13;;;2.60;;
6825;SDS011;3451;52.476;13.316;2023-02-01T01:13:19;15.80;;;2.90;;
6825;SDS011;3451;52.476;13.316;2023-02-01T01:15:45;19.07;;;4.27;;
6825;SDS011;3451;52.476;13.316;2023-02-01T01:18:12;13.13;;;3.03;;
6825;SDS011;3451;52.476;13.316;2023-02-01T01:20:38;11.67;;;2.80;;
6825;SDS011;3451;52.476;13.316;2023-02-01T01:23:06;17.80;;;3.10;;
6825;SDS011;3451;52.476;13.316;2023-02-01T01:25:32;15.33;;;3.60;;
6825;SDS011;3451;52.476;13.316;2023-02-01T01:27:59;15.90;;;3.20;;
6825;SDS011;3451;52.476;13.316;2023-02-01T01:30:25;15.00;;;3.37;;
6825;SDS011;3451;52.476;13.316;2023-02-01T01:32:51;14.57;;;3.13;;
6825;SDS011;3451;52.476;13.316;2023-02-01T01:35:18;15.43;;;2.73;;
6825;SDS011;3451;52.476;13.316;2023-02-01T01:37:44;14.37;;;3.33;;
6825;SDS011;3451;52.476;13.316;2023-02-01T01:40:10;15.70;;;3.07;;
6825;SDS011;3451;52.476;13.316;2023-02-01T01:42:37;12.37;;;2.93;;
6825;SDS011;3451;52.476;13.316;2023-02-01T01:45:05;16.27;;;2.77;;
6825;SDS011;3451;52.476;13.316;2023-02-01T01:47:36;17.47;;;3.83;;
6825;SDS011;3451;52.476;13.316;2023-02-01T01:50:03;14.37;;;3.27;;
6825;SDS011;3451;52.476;13.316;2023-02-01T01:52:31;14.63;;;3.37;;
6825;SDS011;3451;52.476;13.316;2023-02-01T01:54:57;13.37;;;3.43;;
6825;SDS011;3451;52.476;13.316;2023-02-01T01:57:28;22.30;;;3.90;;
6825;SDS011;3451;52.476;13.316;2023-02-01T01:59:59;16.10;;;3.40;;
6825;SDS011;3451;52.476;13.316;2023-02-01T02:02:27;19.40;;;3.90;;
6825;SDS011;3451;52.476;13.316;2023-02-01T02:04:53;14.53;;;3.07;;
6825;SDS011;3451;52.476;13.316;2023-02-01T02:07:21;16.97;;;3.67;;
6825;SDS011;3451;52.476;13.316;2023-02-01T02:09:49;16.10;;;3.53;;
6825;SDS011;3451;52.476;13.316;2023-02-01T02:12:25;20.57;;;3.50;;
6825;SDS011;3451;52.476;13.316;2023-02-01T02:14:52;20.77;;;3.77;;
6825;SDS011;3451;52.476;13.316;2023-02-01T02:22:40;18.57;;;3.33;;
6825;SDS011;3451;52.476;13.316;2023-02-01T02:25:22;15.80;;;3.10;;
6825;SDS011;3451;52.476;13.316;2023-02-01T02:28:13;18.90;;;3.80;;
6825;SDS011;3451;52.476;13.316;2023-02-01T02:31:33;19.50;;;3.57;;
6825;SDS011;3451;52.476;13.316;2023-02-01T02:41:47;18.73;;;3.57;;
6825;SDS011;3451;52.476;13.316;2023-02-01T02:44:37;18.53;;;3.40;;
6825;SDS011;3451;52.476;13.316;2023-02-01T02:47:31;15.07;;;3.00;;
6825;SDS011;3451;52.476;13.316;2023-02-01T02:50:46;17.93;;;4.03;;
6825;SDS011;3451;52.476;13.316;2023-02-01T02:53:07;19.53;;;4.33;;
6825;SDS011;3451;52.476;13.316;2023-02-01T02:55:54;20.60;;;3.40;;
6825;SDS011;3451;52.476;13.316;2023-02-01T02:58:40;16.03;;;3.00;;
6825;SDS011;3451;52.476;13.316;2023-02-01T03:01:25;17.70;;;3.83;;
6825;SDS011;3451;52.476;13.316;2023-02-01T03:04:10;16.07;;;3.33;;
6825;SDS011;3451;52.476;13.316;2023-02-01T03:06:43;20.93;;;4.60;;
6825;SDS011;3451;52.476;13.316;2023-02-01T03:09:13;22.03;;;4.13;;
6825;SDS011;3451;52.476;13.316;2023-02-01T03:11:42;17.30;;;3.53;;
6825;SDS011;3451;52.476;13.316;2023-02-01T03:14:30;17.87;;;3.80;;
6825;SDS011;3451;52.476;13.316;2023-02-01T03:16:59;23.37;;;3.73;;
6825;SDS011;3451;52.476;13.316;2023-02-01T03:19:35;24.80;;;4.23;;
6825;SDS011;3451;52.476;13.316;2023-02-01T03:22:04;20.27;;;3.80;;
6825;SDS011;3451;52.476;13.316;2023-02-01T03:27:05;20.00;;;4.10;;
6825;SDS011;3451;52.476;13.316;2023-02-01T03:29:37;22.57;;;3.73;;
6825;SDS011;3451;52.476;13.316;2023-02-01T03:32:04;18.80;;;3.07;;
6825;SDS011;3451;52.476;13.316;2023-02-01T03:34:30;17.57;;;3.87;;
6825;SDS011;3451;52.476;13.316;2023-02-01T03:37:02;17.40;;;3.87;;
6825;SDS011;3451;52.476;13.316;2023-02-01T03:42:21;14.17;;;3.90;;
6825;SDS011;3451;52.476;13.316;2023-02-01T03:44:52;17.77;;;3.27;;
6825;SDS011;3451;52.476;13.316;2023-02-01T03:47:21;23.37;;;4.23;;
6825;SDS011;3451;52.476;13.316;2023-02-01T03:49:50;19.93;;;3.63;;
6825;SDS011;3451;52.476;13.316;2023-02-01T03:55:23;18.03;;;3.70;;
6825;SDS011;3451;52.476;13.316;2023-02-01T03:58:06;22.13;;;3.73;;
6825;SDS011;3451;52.476;13.316;2023-02-01T04:00:33;20.90;;;3.73;;
6825;SDS011;3451;52.476;13.316;2023-02-01T04:02:59;20.20;;;4.67;;
6825;SDS011;3451;52.476;13.316;2023-02-01T04:05:25;22.20;;;4.27;;
6825;SDS011;3451;52.476;13.316;2023-02-01T04:07:51;18.10;;;3.97;;
6825;SDS011;3451;52.476;13.316;2023-02-01T04:10:18;17.77;;;3.67;;
6825;SDS011;3451;52.476;13.316;2023-02-01T04:12:45;13.73;;;3.47;;
6825;SDS011;3451;52.476;13.316;2023-02-01T04:15:11;31.27;;;3.90;;
6825;SDS011;3451;52.476;13.316;2023-02-01T04:17:37;15.60;;;3.67;;
6825;SDS011;3451;52.476;13.316;2023-02-01T04:20:02;21.15;;;4.32;;
6825;SDS011;3451;52.476;13.316;2023-02-01T04:22:30;20.87;;;4.00;;
6825;SDS011;3451;52.476;13.316;2023-02-01T04:24:57;16.77;;;3.80;;
6825;SDS011;3451;52.476;13.316;2023-02-01T04:27:23;18.07;;;4.00;;
6825;SDS011;3451;52.476;13.316;2023-02-01T04:29:48;18.27;;;3.63;;
6825;SDS011;3451;52.476;13.316;2023-02-01T04:32:17;19.97;;;3.97;;
6825;SDS011;3451;52.476;13.316;2023-02-01T04:34:44;17.20;;;4.07;;
6825;SDS011;3451;52.476;13.316;2023-02-01T04:37:10;23.50;;;3.73;;
6825;SDS011;3451;52.476;13.316;2023-02-01T04:39:36;18.37;;;3.93;;
6825;SDS011;3451;52.476;13.316;2023-02-01T04:42:03;20.67;;;4.20;;
6825;SDS011;3451;52.476;13.316;2023-02-01T04:44:29;21.57;;;3.83;;
6825;SDS011;3451;52.476;13.316;2023-02-01T04:46:55;20.07;;;4.07;;
6825;SDS011;3451;52.476;13.316;2023-02-01T04:49:22;20.27;;;3.73;;
6825;SDS011;3451;52.476;13.316;2023-02-01T04:51:48;20.73;;;3.93;;
6825;SDS011;3451;52.476;13.316;2023-02-01T04:54:14;20.90;;;3.60;;
6825;SDS011;3451;52.476;13.316;2023-02-01T04:56:40;20.67;;;3.90;;
6825;SDS011;3451;52.476;13.316;2023-02-01T04:59:07;20.07;;;4.10;;
6825;SDS011;3451;52.476;13.316;2023-02-01T05:01:33;16.63;;;3.63;;
6825;SDS011;3451;52.476;13.316;2023-02-01T05:03:59;21.60;;;3.53;;
6825;SDS011;3451;52.476;13.316;2023-02-01T05:06:26;14.37;;;3.40;;
6825;SDS011;3451;52.476;13.316;2023-02-01T05:08:52;17.50;;;3.73;;
6825;SDS011;3451;52.476;13.316;2023-02-01T05:11:19;21.40;;;4.27;;
6825;SDS011;3451;52.476;13.316;2023-02-01T05:14:04;18.80;;;3.77;;
6825;SDS011;3451;52.476;13.316;2023-02-01T05:16:30;19.37;;;3.63;;
6825;SDS011;3451;52.476;13.316;2023-02-01T05:18:57;20.53;;;3.80;;
6825;SDS011;3451;52.476;13.316;2023-02-01T05:21:23;18.27;;;4.40;;
6825;SDS011;3451;52.476;13.316;2023-02-01T05:23:49;22.90;;;4.13;;
6825;SDS011;3451;52.476;13.316;2023-02-01T05:26:34;17.13;;;4.17;;
6825;SDS011;3451;52.476;13.316;2023-02-01T05:29:00;15.50;;;3.30;;
6825;SDS011;3451;52.476;13.316;2023-02-01T05:31:27;18.10;;;4.23;;
6825;SDS011;3451;52.476;13.316;2023-02-01T05:33:54;13.40;;;2.97;;
6825;SDS011;3451;52.476;13.316;2023-02-01T05:36:20;21.73;;;3.87;;
6825;SDS011;3451;52.476;13.316;2023-02-01T05:38:46;26.90;;;4.33;;
6825;SDS011;3451;52.476;13.316;2023-02-01T05:41:13;20.67;;;4.23;;
6825;SDS011;3451;52.476;13.316;2023-02-01T05:43:39;21.80;;;4.37;;
6825;SDS011;3451;52.476;13.316;2023-02-01T05:46:05;17.10;;;3.60;;
6825;SDS011;3451;52.476;13.316;2023-02-01T05:48:31;16.07;;;4.17;;
6825;SDS011;3451;52.476;13.316;2023-02-01T05:50:58;16.73;;;4.30;;
6825;SDS011;3451;52.476;13.316;2023-02-01T05:53:24;19.93;;;4.20;;
6825;SDS011;3451;52.476;13.316;2023-02-01T05:55:50;19.03;;;3.93;;
6825;SDS011;3451;52.476;13.316;2023-02-01T05:58:16;14.30;;;4.10;;
6825;SDS011;3451;52.476;13.316;2023-02-01T06:00:43;18.87;;;4.13;;
6825;SDS011;3451;52.476;13.316;2023-02-01T06:03:09;16.83;;;4.17;;
6825;SDS011;3451;52.476;13.316;2023-02-01T06:05:35;22.27;;;4.33;;
6825;SDS011;3451;52.476;13.316;2023-02-01T06:08:03;16.47;;;3.73;;
6825;SDS011;3451;52.476;13.316;2023-02-01T06:10:29;16.03;;;3.70;;
6825;SDS011;3451;52.476;13.316;2023-02-01T06:12:55;19.43;;;4.10;;
6825;SDS011;3451;52.476;13.316;2023-02-01T06:15:22;19.93;;;4.23;;
6825;SDS011;3451;52.476;13.316;2023-02-01T06:17:48;21.33;;;4.40;;
6825;SDS011;3451;52.476;13.316;2023-02-01T06:20:14;23.50;;;4.83;;
6825;SDS011;3451;52.476;13.316;2023-02-01T06:22:41;17.90;;;4.20;;
6825;SDS011;3451;52.476;13.316;2023-02-01T06:25:08;21.40;;;3.93;;
6825;SDS011;3451;52.476;13.316;2023-02-01T06:27:35;17.97;;;3.83;;
6825;SDS011;3451;52.476;13.316;2023-02-01T06:30:02;18.33;;;4.10;;
6825;SDS011;3451;52.476;13.316;2023-02-01T06:32:29;15.60;;;4.00;;
6825;SDS011;3451;52.476;13.316;2023-02-01T06:34:55;14.70;;;3.90;;
6825;SDS011;3451;52.476;13.316;2023-02-01T06:37:23;21.63;;;3.87;;
6825;SDS011;3451;52.476;13.316;2023-02-01T06:39:50;17.10;;;2.97;;
6825;SDS011;3451;52.476;13.316;2023-02-01T06:42:17;20.20;;;3.87;;
6825;SDS011;3451;52.476;13.316;2023-02-01T06:44:43;21.27;;;4.27;;
6825;SDS011;3451;52.476;13.316;2023-02-01T06:47:09;19.77;;;4.00;;
6825;SDS011;3451;52.476;13.316;2023-02-01T06:49:36;17.40;;;3.67;;
6825;SDS011;3451;52.476;13.316;2023-02-01T06:52:02;24.80;;;4.10;;
6825;SDS011;3451;52.476;13.316;2023-02-01T06:54:28;19.67;;;3.97;;
6825;SDS011;3451;52.476;13.316;2023-02-01T06:56:58;15.77;;;4.80;;
6825;SDS011;3451;52.476;13.316;2023-02-01T06:59:24;15.20;;;3.80;;
6825;SDS011;3451;52.476;13.316;2023-02-01T07:01:53;18.83;;;4.30;;
6825;SDS011;3451;52.476;13.316;2023-02-01T07:04:20;18.70;;;3.50;;
6825;SDS011;3451;52.476;13.316;2023-02-01T07:06:46;16.50;;;4.27;;
6825;SDS011;3451;52.476;13.316;2023-02-01T07:09:12;16.43;;;3.73;;
6825;SDS011;3451;52.476;13.316;2023-02-01T07:11:39;17.63;;;3.93;;
6825;SDS011;3451;52.476;13.316;2023-02-01T07:14:12;19.30;;;4.53;;
6825;SDS011;3451;52.476;13.316;2023-02-01T07:16:38;16.27;;;3.50;;
6825;SDS011;3451;52.476;13.316;2023-02-01T07:19:05;17.60;;;3.60;;
6825;SDS011;3451;52.476;13.316;2023-02-01T07:21:32;17.17;;;3.90;;
6825;SDS011;3451;52.476;13.316;2023-02-01T07:23:58;15.93;;;3.60;;
6825;SDS011;3451;52.476;13.316;2023-02-01T07:26:24;18.27;;;3.70;;
6825;SDS011;3451;52.476;13.316;2023-02-01T07:28:51;18.83;;;3.70;;
6825;SDS011;3451;52.476;13.316;2023-02-01T07:31:18;15.53;;;4.50;;
6825;SDS011;3451;52.476;13.316;2023-02-01T07:33:47;17.97;;;3.87;;
6825;SDS011;3451;52.476;13.316;2023-02-01T07:36:14;16.67;;;4.00;;
6825;SDS011;3451;52.476;13.316;2023-02-01T07:38:41;15.57;;;3.50;;
6825;SDS011;3451;52.476;13.316;2023-02-01T07:41:08;15.60;;;3.60;;
6825;SDS011;3451;52.476;13.316;2023-02-01T07:43:34;16.63;;;4.10;;
6825;SDS011;3451;52.476;13.316;2023-02-01T07:46:01;14.87;;;3.73;;
6825;SDS011;3451;52.476;13.316;2023-02-01T07:48:28;15.53;;;3.97;;
6825;SDS011;3451;52.476;13.316;2023-02-01T07:53:24;15.87;;;3.50;;
6825;SDS011;3451;52.476;13.316;2023-02-01T07:55:51;19.73;;;4.17;;
6825;SDS011;3451;52.476;13.316;2023-02-01T07:58:17;17.93;;;4.00;;
6825;SDS011;3451;52.476;13.316;2023-02-01T08:00:43;19.43;;;3.80;;
6825;SDS011;3451;52.476;13.316;2023-02-01T08:03:28;15.63;;;4.13;;
6825;SDS011;3451;52.476;13.316;2023-02-01T08:05:55;11.83;;;3.90;;
6825;SDS011;3451;52.476;13.316;2023-02-01T08:08:21;15.37;;;4.20;;
6825;SDS011;3451;52.476;13.316;2023-02-01T08:10:48;15.60;;;3.57;;
6825;SDS011;3451;52.476;13.316;2023-02-01T08:13:14;12.60;;;3.83;;
6825;SDS011;3451;52.476;13.316;2023-02-01T08:15:41;15.57;;;3.73;;
6825;SDS011;3451;52.476;13.316;2023-02-01T08:18:07;13.57;;;3.90;;
6825;SDS011;3451;52.476;13.316;2023-02-01T08:20:33;11.13;;;3.07;;
6825;SDS011;3451;52.476;13.316;2023-02-01T08:23:02;12.03;;;2.90;;
6825;SDS011;3451;52.476;13.316;2023-02-01T08:25:29;14.93;;;3.60;;
6825;SDS011;3451;52.476;13.316;2023-02-01T08:27:55;9.87;;;3.20;;
6825;SDS011;3451;52.476;13.316;2023-02-01T08:30:22;9.53;;;3.17;;
6825;SDS011;3451;52.476;13.316;2023-02-01T08:32:49;9.20;;;3.40;;
6825;SDS011;3451;52.476;13.316;2023-02-01T08:35:15;11.57;;;3.17;;
6825;SDS011;3451;52.476;13.316;2023-02-01T08:37:41;14.63;;;3.53;;
6825;SDS011;3451;52.476;13.316;2023-02-01T08:40:08;14.20;;;4.17;;
6825;SDS011;3451;52.476;13.316;2023-02-01T08:42:35;11.43;;;3.30;;
6825;SDS011;3451;52.476;13.316;2023-02-01T08:45:17;11.97;;;3.60;;
6825;SDS011;3451;52.476;13.316;2023-02-01T08:47:44;16.00;;;3.57;;
6825;SDS011;3451;52.476;13.316;2023-02-01T08:50:13;10.80;;;3.83;;
6825;SDS011;3451;52.476;13.316;2023-02-01T08:52:39;10.70;;;2.73;;
6825;SDS011;3451;52.476;13.316;2023-02-01T08:55:06;8.97;;;2.63;;
6825;SDS011;3451;52.476;13.316;2023-02-01T08:57:33;8.27;;;2.50;;
6825;SDS011;3451;52.476;13.316;2023-02-01T08:59:59;7.20;;;2.27;;
6825;SDS011;3451;52.476;13.316;2023-02-01T09:02:26;6.93;;;2.50;;
6825;SDS011;3451;52.476;13.316;2023-02-01T09:04:52;6.13;;;2.07;;
6825;SDS011;3451;52.476;13.316;2023-02-01T09:07:19;8.17;;;1.97;;
6825;SDS011;3451;52.476;13.316;2023-02-01T09:09:45;7.83;;;2.40;;
6825;SDS011;3451;52.476;13.316;2023-02-01T09:12:12;11.23;;;2.00;;
6825;SDS011;3451;52.476;13.316;2023-02-01T09:14:38;6.93;;;1.97;;
6825;SDS011;3451;52.476;13.316;2023-02-01T09:17:05;5.67;;;1.97;;
6825;SDS011;3451;52.476;13.316;2023-02-01T09:19:34;4.90;;;1.60;;
6825;SDS011;3451;52.476;13.316;2023-02-01T09:22:00;6.57;;;2.10;;
6825;SDS011;3451;52.476;13.316;2023-02-01T09:24:27;5.53;;;1.80;;
6825;SDS011;3451;52.476;13.316;2023-02-01T09:26:53;2.90;;;1.60;;
6825;SDS011;3451;52.476;13.316;2023-02-01T09:29:20;5.13;;;1.60;;
6825;SDS011;3451;52.476;13.316;2023-02-01T09:31:46;5.13;;;1.60;;
6825;SDS011;3451;52.476;13.316;2023-02-01T09:34:26;3.17;;;1.30;;
6825;SDS011;3451;52.476;13.316;2023-02-01T09:36:53;4.30;;;1.40;;
6825;SDS011;3451;52.476;13.316;2023-02-01T09:39:19;2.07;;;1.07;;
6825;SDS011;3451;52.476;13.316;2023-02-01T09:44:24;5.40;;;1.40;;
6825;SDS011;3451;52.476;13.316;2023-02-01T09:47:16;4.43;;;1.30;;
6825;SDS011;3451;52.476;13.316;2023-02-01T09:49:46;4.60;;;1.27;;
6825;SDS011;3451;52.476;13.316;2023-02-01T09:52:14;5.43;;;1.47;;
6825;SDS011;3451;52.476;13.316;2023-02-01T09:54:47;4.33;;;1.57;;
6825;SDS011;3451;52.476;13.316;2023-02-01T09:59:52;7.50;;;1.90;;
6825;SDS011;3451;52.476;13.316;2023-02-01T10:02:21;4.37;;;1.50;;
6825;SDS011;3451;52.476;13.316;2023-02-01T10:04:49;3.73;;;1.37;;
6825;SDS011;3451;52.476;13.316;2023-02-01T10:07:19;2.47;;;1.10;;
6825;SDS011;3451;52.476;13.316;2023-02-01T10:12:24;4.97;;;1.43;;
6825;SDS011;3451;52.476;13.316;2023-02-01T10:15:02;6.70;;;1.50;;
6825;SDS011;3451;52.476;13.316;2023-02-01T10:20:22;6.97;;;1.87;;
6825;SDS011;3451;52.476;13.316;2023-02-01T10:23:07;3.03;;;1.43;;
6825;SDS011;3451;52.476;13.316;2023-02-01T10:26:01;6.70;;;2.03;;
6825;SDS011;3451;52.476;13.316;2023-02-01T10:28:30;5.17;;;1.77;;
6825;SDS011;3451;52.476;13.316;2023-02-01T10:30:59;4.63;;;1.33;;
6825;SDS011;3451;52.476;13.316;2023-02-01T10:33:33;7.27;;;1.80;;
6825;SDS011;3451;52.476;13.316;2023-02-01T10:36:05;4.93;;;1.57;;
6825;SDS011;3451;52.476;13.316;2023-02-01T10:38:36;4.13;;;1.80;;
6825;SDS011;3451;52.476;13.316;2023-02-01T10:41:04;3.47;;;1.70;;
6825;SDS011;3451;52.476;13.316;2023-02-01T10:43:33;5.50;;;1.70;;
6825;SDS011;3451;52.476;13.316;2023-02-01T10:46:00;5.13;;;1.73;;
6825;SDS011;3451;52.476;13.316;2023-02-01T10:48:26;5.03;;;1.70;;
6825;SDS011;3451;52.476;13.316;2023-02-01T10:50:59;10.50;;;1.67;;
6825;SDS011;3451;52.476;13.316;2023-02-01T10:53:29;5.77;;;1.60;;
6825;SDS011;3451;52.476;13.316;2023-02-01T10:55:57;8.27;;;1.93;;
6825;SDS011;3451;52.476;13.316;2023-02-01T10:58:28;7.93;;;1.83;;
6825;SDS011;3451;52.476;13.316;2023-02-01T11:00:58;6.20;;;2.60;;
6825;SDS011;3451;52.476;13.316;2023-02-01T11:03:30;5.37;;;1.50;;
6825;SDS011;3451;52.476;13.316;2023-02-01T11:05:57;5.10;;;1.53;;
6825;SDS011;3451;52.476;13.316;2023-02-01T11:08:24;4.33;;;1.70;;
6825;SDS011;3451;52.476;13.316;2023-02-01T11:11:01;5.77;;;1.83;;
6825;SDS011;3451;52.476;13.316;2023-02-01T11:13:29;7.03;;;1.90;;
6825;SDS011;3451;52.476;13.316;2023-02-01T11:15:56;5.60;;;1.60;;
6825;SDS011;3451;52.476;13.316;2023-02-01T11:18:30;7.40;;;1.90;;
6825;SDS011;3451;52.476;13.316;2023-02-01T11:20:56;9.60;;;1.90;;
6825;SDS011;3451;52.476;13.316;2023-02-01T11:23:24;4.97;;;1.70;;
6825;SDS011;3451;52.476;13.316;2023-02-01T11:25:52;7.87;;;2.17;;
6825;SDS011;3451;52.476;13.316;2023-02-01T11:28:19;9.37;;;1.90;;
6825;SDS011;3451;52.476;13.316;2023-02-01T11:30:47;10.43;;;2.20;;
6825;SDS011;3451;52.476;13.316;2023-02-01T11:33:18;11.97;;;2.20;;
6825;SDS011;3451;52.476;13.316;2023-02-01T11:35:46;8.63;;;1.93;;
6825;SDS011;3451;52.476;13.316;2023-02-01T11:38:29;11.03;;;2.03;;
6825;SDS011;3451;52.476;13.316;2023-02-01T11:41:20;10.13;;;2.60;;
6825;SDS011;3451;52.476;13.316;2023-02-01T11:43:50;8.53;;;2.20;;
6825;SDS011;3451;52.476;13.316;2023-02-01T11:46:17;10.90;;;1.97;;
6825;SDS011;3451;52.476;13.316;2023-02-01T11:48:48;8.43;;;1.97;;
6825;SDS011;3451;52.476;13.316;2023-02-01T11:53:44;6.93;;;2.00;;
6825;SDS011;3451;52.476;13.316;2023-02-01T11:56:18;9.40;;;2.17;;
6825;SDS011;3451;52.476;13.316;2023-02-01T11:59:04;8.07;;;1.90;;
6825;SDS011;3451;52.476;13.316;2023-02-01T12:01:48;6.27;;;1.67;;
6825;SDS011;3451;52.476;13.316;2023-02-01T12:07:19;7.10;;;2.87;;
6825;SDS011;3451;52.476;13.316;2023-02-01T12:12:41;6.33;;;1.70;;
6825;SDS011;3451;52.476;13.316;2023-02-01T12:15:18;6.50;;;2.00;;
6825;SDS011;3451;52.476;13.316;2023-02-01T12:25:54;13.33;;;2.30;;
6825;SDS011;3451;52.476;13.316;2023-02-01T12:35:59;7.43;;;1.90;;
6825;SDS011;3451;52.476;13.316;2023-02-01T12:41:25;8.47;;;2.30;;
6825;SDS011;3451;52.476;13.316;2023-02-01T12:44:03;9.70;;;2.17;;
6825;SDS011;3451;52.476;13.316;2023-02-01T12:46:37;11.30;;;2.50;;
6825;SDS011;3451;52.476;13.316;2023-02-01T12:49:06;7.73;;;2.20;;
6825;SDS011;3451;52.476;13.316;2023-02-01T12:51:36;8.73;;;2.37;;
6825;SDS011;3451;52.476;13.316;2023-02-01T12:54:12;9.53;;;2.27;;
6825;SDS011;3451;52.476;13.316;2023-02-01T12:56:46;10.17;;;2.60;;
6825;SDS011;3451;52.476;13.316;2023-02-01T12:59:16;12.47;;;2.40;;
6825;SDS011;3451;52.476;13.316;2023-02-01T13:01:49;9.13;;;2.47;;
6825;SDS011;3451;52.476;13.316;2023-02-01T13:04:19;9.27;;;2.30;;
6825;SDS011;3451;52.476;13.316;2023-02-01T13:06:48;8.20;;;2.37;;
6825;SDS011;3451;52.476;13.316;2023-02-01T13:09:21;8.43;;;2.00;;
6825;SDS011;3451;52.476;13.316;2023-02-01T13:11:49;10.33;;;2.27;;
6825;SDS011;3451;52.476;13.316;2023-02-01T13:14:32;8.60;;;2.10;;
6825;SDS011;3451;52.476;13.316;2023-02-01T13:17:01;8.77;;;2.17;;
6825;SDS011;3451;52.476;13.316;2023-02-01T13:21:59;10.23;;;2.20;;
6825;SDS011;3451;52.476;13.316;2023-02-01T13:24:31;5.77;;;1.70;;
6825;SDS011;3451;52.476;13.316;2023-02-01T13:26:59;8.20;;;2.00;;
6825;SDS011;3451;52.476;13.316;2023-02-01T13:29:26;9.17;;;1.90;;
6825;SDS011;3451;52.476;13.316;2023-02-01T13:34:59;10.43;;;2.30;;
6825;SDS011;3451;52.476;13.316;2023-02-01T13:42:35;7.77;;;2.20;;
6825;SDS011;3451;52.476;13.316;2023-02-01T13:45:17;9.03;;;2.17;;
6825;SDS011;3451;52.476;13.316;2023-02-01T13:47:48;9.30;;;2.33;;
6825;SDS011;3451;52.476;13.316;2023-02-01T13:50:23;8.10;;;2.00;;
6825;SDS011;3451;52.476;13.316;2023-02-01T13:52:52;10.83;;;1.90;;
6825;SDS011;3451;52.476;13.316;2023-02-01T13:57:45;9.03;;;2.33;;
6825;SDS011;3451;52.476;13.316;2023-02-01T14:00:26;9.27;;;2.00;;
6825;SDS011;3451;52.476;13.316;2023-02-01T14:13:23;8.67;;;2.67;;
6825;SDS011;3451;52.476;13.316;2023-02-01T14:21:13;9.07;;;2.30;;
6825;SDS011;3451;52.476;13.316;2023-02-01T14:23:59;7.07;;;2.93;;
6825;SDS011;3451;52.476;13.316;2023-02-01T14:26:26;14.60;;;3.00;;
6825;SDS011;3451;52.476;13.316;2023-02-01T14:28:55;13.93;;;3.10;;
6825;SDS011;3451;52.476;13.316;2023-02-01T14:34:00;14.27;;;2.87;;
6825;SDS011;3451;52.476;13.316;2023-02-01T14:36:38;8.13;;;2.47;;
6825;SDS011;3451;52.476;13.316;2023-02-01T14:39:04;8.83;;;2.73;;
6825;SDS011;3451;52.476;13.316;2023-02-01T14:41:34;17.93;;;2.60;;
6825;SDS011;3451;52.476;13.316;2023-02-01T14:49:14;12.37;;;2.90;;
6825;SDS011;3451;52.476;13.316;2023-02-01T14:51:41;9.53;;;2.73;;
6825;SDS011;3451;52.476;13.316;2023-02-01T14:54:08;10.53;;;2.30;;
6825;SDS011;3451;52.476;13.316;2023-02-01T14:56:38;12.03;;;2.57;;
6825;SDS011;3451;52.476;13.316;2023-02-01T14:59:12;8.60;;;2.70;;
6825;SDS011;3451;52.476;13.316;2023-02-01T15:01:46;15.67;;;2.80;;
6825;SDS011;3451;52.476;13.316;2023-02-01T15:04:21;11.50;;;2.27;;
6825;SDS011;3451;52.476;13.316;2023-02-01T15:06:54;10.47;;;2.03;;
6825;SDS011;3451;52.476;13.316;2023-02-01T15:09:25;5.30;;;2.00;;
6825;SDS011;3451;52.476;13.316;2023-02-01T15:14:37;4.90;;;1.80;;
6825;SDS011;3451;52.476;13.316;2023-02-01T15:17:21;5.87;;;1.70;;
6825;SDS011;3451;52.476;13.316;2023-02-01T15:19:54;4.83;;;1.50;;
6825;SDS011;3451;52.476;13.316;2023-02-01T15:22:20;6.27;;;2.00;;
6825;SDS011;3451;52.476;13.316;2023-02-01T15:24:59;7.53;;;1.97;;
6825;SDS011;3451;52.476;13.316;2023-02-01T15:27:29;3.50;;;1.43;;
6825;SDS011;3451;52.476;13.316;2023-02-01T15:30:06;3.40;;;1.43;;
6825;SDS011;3451;52.476;13.316;2023-02-01T15:32:34;4.93;;;1.50;;
6825;SDS011;3451;52.476;13.316;2023-02-01T15:35:00;4.17;;;1.60;;
6825;SDS011;3451;52.476;13.316;2023-02-01T15:37:27;3.07;;;1.50;;
6825;SDS011;3451;52.476;13.316;2023-02-01T15:42:53;3.63;;;1.33;;
6825;SDS011;3451;52.476;13.316;2023-02-01T15:45:21;2.27;;;1.13;;
6825;SDS011;3451;52.476;13.316;2023-02-01T15:47:48;2.07;;;1.10;;
6825;SDS011;3451;52.476;13.316;2023-02-01T15:50:16;5.17;;;1.50;;
6825;SDS011;3451;52.476;13.316;2023-02-01T15:52:43;3.83;;;1.33;;
6825;SDS011;3451;52.476;13.316;2023-02-01T15:55:29;4.43;;;1.50;;
6825;SDS011;3451;52.476;13.316;2023-02-01T15:57:58;4.60;;;1.40;;
6825;SDS011;3451;52.476;13.316;2023-02-01T16:00:30;3.57;;;1.50;;
6825;SDS011;3451;52.476;13.316;2023-02-01T16:03:00;3.30;;;1.40;;
6825;SDS011;3451;52.476;13.316;2023-02-01T16:05:31;1.80;;;1.10;;
6825;SDS011;3451;52.476;13.316;2023-02-01T16:08:04;2.73;;;1.43;;
6825;SDS011;3451;52.476;13.316;2023-02-01T16:10:31;4.13;;;1.33;;
6825;SDS011;3451;52.476;13.316;2023-02-01T16:12:57;2.17;;;1.17;;
6825;SDS011;3451;52.476;13.316;2023-02-01T16:15:26;2.50;;;1.17;;
6825;SDS011;3451;52.476;13.316;2023-02-01T16:17:55;2.33;;;1.00;;
6825;SDS011;3451;52.476;13.316;2023-02-01T16:20:21;1.80;;;0.80;;
6825;SDS011;3451;52.476;13.316;2023-02-01T16:22:48;2.80;;;0.90;;
6825;SDS011;3451;52.476;13.316;2023-02-01T16:25:14;2.43;;;0.90;;
6825;SDS011;3451;52.476;13.316;2023-02-01T16:27:40;0.80;;;0.70;;
6825;SDS011;3451;52.476;13.316;2023-02-01T16:30:07;0.97;;;0.70;;
6825;SDS011;3451;52.476;13.316;2023-02-01T16:32:36;1.03;;;0.60;;
6825;SDS011;3451;52.476;13.316;2023-02-01T16:35:17;1.07;;;0.80;;
6825;SDS011;3451;52.476;13.316;2023-02-01T16:37:45;0.90;;;0.70;;
6825;SDS011;3451;52.476;13.316;2023-02-01T16:40:13;0.57;;;0.50;;
6825;SDS011;3451;52.476;13.316;2023-02-01T16:42:40;0.57;;;0.57;;
6825;SDS011;3451;52.476;13.316;2023-02-01T16:45:06;2.10;;;0.80;;
6825;SDS011;3451;52.476;13.316;2023-02-01T16:47:35;1.07;;;0.70;;
6825;SDS011;3451;52.476;13.316;2023-02-01T16:50:02;0.90;;;0.60;;
6825;SDS011;3451;52.476;13.316;2023-02-01T16:52:46;0.63;;;0.60;;
6825;SDS011;3451;52.476;13.316;2023-02-01T16:55:13;2.10;;;0.57;;